createdAt,value
2018-04-12T00:01:08.400Z,11.60
2018-04-12T00:03:37.815Z,11.87
2018-04-12T00:06:06.340Z,11.87
2018-04-12T00:08:35.187Z,12.37
2018-04-12T00:11:04.486Z,12.60
2018-04-12T00:13:33.243Z,10.20
2018-04-12T00:16:01.671Z,11.07
2018-04-12T00:18:30.432Z,14.83
2018-04-12T00:21:00.126Z,22.17
2018-04-12T00:23:28.928Z,10.57
2018-04-12T00:25:58.178Z,13.43
2018-04-12T00:28:26.578Z,13.40
2018-04-12T00:30:55.032Z,12.63
2018-04-12T00:33:23.479Z,14.43
2018-04-12T00:35:52.058Z,15.20
2018-04-12T00:38:20.874Z,10.43
2018-04-12T00:40:49.314Z,14.67
2018-04-12T00:43:18.871Z,14.93
2018-04-12T00:45:48.750Z,13.00
2018-04-12T00:48:17.525Z,14.13
2018-04-12T00:50:46.224Z,12.53
2018-04-12T00:56:10.114Z,11.90
2018-04-12T00:58:40.035Z,15.30
2018-04-12T01:01:09.582Z,12.50
2018-04-12T01:03:38.418Z,16.93
2018-04-12T01:06:08.093Z,15.70
2018-04-12T01:08:36.440Z,18.47
2018-04-12T01:11:06.061Z,19.33
2018-04-12T01:13:34.836Z,15.47
2018-04-12T01:16:03.217Z,16.07
2018-04-12T01:18:32.747Z,15.33
2018-04-12T01:21:01.270Z,13.83
2018-04-12T01:23:29.687Z,14.97
2018-04-12T01:25:59.370Z,14.57
2018-04-12T01:28:28.755Z,14.30
2018-04-12T01:30:58.417Z,15.97
2018-04-12T01:36:01.440Z,13.27
2018-04-12T01:38:30.635Z,14.33
2018-04-12T01:40:59.143Z,14.57
2018-04-12T01:43:28.824Z,14.27
2018-04-12T01:45:57.168Z,12.60
2018-04-12T01:48:25.516Z,12.17
2018-04-12T01:50:53.959Z,9.73
2018-04-12T01:53:22.918Z,15.13
2018-04-12T01:55:52.120Z,16.00
2018-04-12T01:58:20.750Z,15.33
2018-04-12T02:00:49.317Z,18.27
2018-04-12T02:03:18.360Z,17.37
2018-04-12T02:05:46.715Z,12.73
2018-04-12T02:08:15.089Z,14.67
2018-04-12T02:10:44.216Z,12.43
2018-04-12T02:13:13.805Z,10.83
2018-04-12T02:15:42.714Z,13.03
2018-04-12T02:18:11.060Z,14.30
2018-04-12T02:20:39.761Z,20.77
2018-04-12T02:23:08.120Z,15.10
2018-04-12T02:25:37.707Z,18.43
2018-04-12T02:28:06.832Z,17.47
2018-04-12T02:30:35.529Z,15.13
2018-04-12T02:33:04.791Z,13.10
2018-04-12T02:35:34.699Z,13.53
2018-04-12T02:38:03.866Z,15.17
2018-04-12T02:40:32.226Z,14.77
2018-04-12T02:43:01.133Z,15.73
2018-04-12T02:45:29.696Z,14.43
2018-04-12T02:47:59.289Z,17.03
2018-04-12T02:50:27.998Z,12.07
2018-04-12T02:52:58.155Z,11.90
2018-04-12T02:55:27.167Z,12.43
2018-04-12T02:57:55.538Z,11.50
2018-04-12T03:00:24.414Z,13.73
2018-04-12T03:02:52.933Z,13.03
2018-04-12T03:05:21.817Z,14.07
2018-04-12T03:07:51.745Z,10.20
2018-04-12T03:10:20.101Z,15.40
2018-04-12T03:12:48.979Z,11.40
2018-04-12T03:15:17.435Z,12.37
2018-04-12T03:17:46.191Z,12.73
2018-04-12T03:20:14.860Z,9.30
2018-04-12T03:22:44.611Z,8.67
2018-04-12T03:25:12.967Z,10.30
2018-04-12T03:27:41.704Z,12.80
2018-04-12T03:30:10.802Z,11.90
2018-04-12T03:32:39.157Z,10.73
2018-04-12T03:35:08.523Z,11.63
2018-04-12T03:37:36.951Z,11.37
2018-04-12T03:40:05.635Z,10.03
2018-04-12T03:42:39.833Z,13.17
2018-04-12T03:45:10.238Z,10.73
2018-04-12T03:47:38.938Z,10.83
2018-04-12T03:50:07.379Z,10.87
2018-04-12T03:52:35.729Z,10.63
2018-04-12T03:55:04.490Z,10.23
2018-04-12T03:57:33.711Z,12.17
2018-04-12T04:00:02.069Z,8.00
2018-04-12T04:02:31.343Z,18.77
2018-04-12T04:05:01.048Z,10.50
2018-04-12T04:07:29.399Z,11.67
2018-04-12T04:09:58.080Z,8.87
2018-04-12T04:12:26.434Z,9.07
2018-04-12T04:18:08.013Z,10.57
2018-04-12T04:20:48.596Z,9.80
2018-04-12T04:23:17.435Z,8.37
2018-04-12T04:25:45.795Z,13.77
2018-04-12T04:28:14.340Z,10.50
2018-04-12T04:30:42.849Z,11.57
2018-04-12T04:33:11.245Z,11.43
2018-04-12T04:35:40.878Z,11.57
2018-04-12T04:38:09.227Z,9.87
2018-04-12T04:40:37.620Z,8.97
2018-04-12T04:43:06.301Z,12.00
2018-04-12T04:45:34.664Z,8.00
2018-04-12T04:48:03.087Z,14.23
2018-04-12T04:50:31.468Z,11.70
2018-04-12T04:52:59.821Z,10.30
2018-04-12T04:55:28.604Z,15.33
2018-04-12T04:57:57.391Z,10.10
2018-04-12T05:00:26.146Z,15.07
2018-04-12T05:02:55.367Z,8.87
2018-04-12T05:05:24.360Z,11.40
2018-04-12T05:07:53.158Z,10.63
2018-04-12T05:10:21.572Z,8.80
2018-04-12T05:12:50.167Z,9.13
2018-04-12T05:15:18.549Z,11.07
2018-04-12T05:17:47.444Z,8.77
2018-04-12T05:20:17.159Z,8.93
2018-04-12T05:22:45.870Z,10.30
2018-04-12T05:25:14.216Z,6.87
2018-04-12T05:27:42.588Z,8.10
2018-04-12T05:30:11.328Z,6.67
2018-04-12T05:32:39.844Z,8.97
2018-04-12T05:35:08.197Z,12.10
2018-04-12T05:37:37.170Z,10.93
2018-04-12T05:40:05.524Z,8.27
2018-04-12T05:42:33.868Z,9.43
2018-04-12T05:45:03.230Z,8.40
2018-04-12T05:47:31.594Z,9.90
2018-04-12T05:50:00.028Z,6.57
2018-04-12T05:52:28.371Z,9.47
2018-04-12T05:54:56.743Z,8.53
2018-04-12T05:57:25.103Z,8.70
2018-04-12T05:59:54.232Z,6.77
2018-04-12T06:02:24.028Z,8.63
2018-04-12T06:04:53.219Z,8.47
2018-04-12T06:07:21.933Z,9.93
2018-04-12T06:09:50.372Z,8.93
2018-04-12T06:12:19.180Z,10.07
2018-04-12T06:14:48.167Z,10.07
2018-04-12T06:17:16.617Z,6.37
2018-04-12T06:19:45.021Z,7.67
2018-04-12T06:22:13.827Z,10.77
2018-04-12T06:24:42.340Z,7.30
2018-04-12T06:27:11.672Z,6.37
2018-04-12T06:29:40.093Z,8.50
2018-04-12T06:32:08.440Z,12.47
2018-04-12T06:34:36.886Z,7.57
2018-04-12T06:37:06.063Z,8.80
2018-04-12T06:39:34.848Z,7.60
2018-04-12T06:42:03.644Z,12.20
2018-04-12T06:44:32.570Z,12.10
2018-04-12T06:47:00.928Z,8.50
2018-04-12T06:49:29.279Z,7.30
2018-04-12T06:51:58.569Z,12.60
2018-04-12T06:54:26.971Z,11.93
2018-04-12T06:56:56.408Z,10.03
2018-04-12T06:59:26.019Z,8.77
2018-04-12T07:01:54.676Z,10.87
2018-04-12T07:04:23.027Z,6.40
2018-04-12T07:06:51.386Z,8.23
2018-04-12T07:09:19.885Z,8.53
2018-04-12T07:11:48.311Z,10.60
2018-04-12T07:14:16.688Z,5.40
2018-04-12T07:16:45.137Z,13.20
2018-04-12T07:19:14.297Z,7.90
2018-04-12T07:21:43.562Z,12.50
2018-04-12T07:24:11.978Z,9.80
2018-04-12T07:26:40.846Z,12.83
2018-04-12T07:29:10.407Z,9.33
2018-04-12T07:31:38.760Z,7.33
2018-04-12T07:34:07.115Z,10.73
2018-04-12T07:36:35.535Z,6.50
2018-04-12T07:39:04.903Z,5.33
2018-04-12T07:41:33.274Z,8.13
2018-04-12T07:44:01.659Z,6.67
2018-04-12T07:46:30.181Z,6.53
2018-04-12T07:48:59.555Z,11.77
2018-04-12T07:51:28.452Z,6.53
2018-04-12T07:53:56.913Z,8.97
2018-04-12T07:56:25.324Z,6.20
2018-04-12T07:58:53.888Z,7.03
2018-04-12T08:01:22.316Z,8.27
2018-04-12T08:03:50.669Z,7.37
2018-04-12T08:06:19.015Z,11.50
2018-04-12T08:08:47.375Z,8.43
2018-04-12T08:11:15.977Z,10.40
2018-04-12T08:13:44.279Z,8.20
2018-04-12T08:16:12.643Z,7.20
2018-04-12T08:18:41.218Z,10.60
2018-04-12T08:21:09.983Z,8.07
2018-04-12T08:23:38.391Z,6.33
2018-04-12T08:26:06.758Z,7.53
2018-04-12T08:28:35.456Z,12.50
2018-04-12T08:31:03.897Z,6.47
2018-04-12T08:33:32.265Z,7.53
2018-04-12T08:36:00.639Z,7.20
2018-04-12T08:38:29.062Z,8.57
2018-04-12T08:40:57.672Z,6.97
2018-04-12T08:43:26.049Z,10.57
2018-04-12T08:45:55.096Z,6.67
2018-04-12T08:48:23.625Z,6.67
2018-04-12T08:50:52.355Z,6.70
2018-04-12T08:53:20.716Z,9.70
2018-04-12T08:55:49.723Z,10.07
2018-04-12T08:58:18.096Z,9.70
2018-04-12T09:00:46.523Z,9.20
2018-04-12T09:03:15.140Z,5.90
2018-04-12T09:05:44.112Z,6.07
2018-04-12T09:08:12.516Z,8.03
2018-04-12T09:10:41.451Z,8.03
2018-04-12T09:13:09.800Z,8.63
2018-04-12T09:15:38.477Z,8.40
2018-04-12T09:18:06.873Z,6.40
2018-04-12T09:20:35.269Z,21.23
2018-04-12T09:23:03.929Z,7.50
2018-04-12T09:25:33.430Z,4.90
2018-04-12T09:28:02.312Z,9.03
2018-04-12T09:30:31.217Z,7.53
2018-04-12T09:32:59.924Z,11.73
2018-04-12T09:35:30.616Z,8.23
2018-04-12T09:37:59.124Z,7.20
2018-04-12T09:40:27.544Z,8.50
2018-04-12T09:42:55.901Z,6.20
2018-04-12T09:45:24.277Z,8.10
2018-04-12T09:47:52.910Z,9.10
2018-04-12T09:50:21.553Z,9.57
2018-04-12T09:52:50.596Z,8.20
2018-04-12T09:55:19.224Z,6.37
2018-04-12T09:57:47.988Z,6.10
2018-04-12T10:00:16.392Z,7.77
2018-04-12T10:02:50.506Z,24.17
2018-04-12T10:05:24.635Z,11.00
2018-04-12T10:07:53.236Z,6.27
2018-04-12T10:10:21.942Z,10.60
2018-04-12T10:12:50.383Z,8.93
2018-04-12T10:15:18.732Z,6.20
2018-04-12T10:17:47.139Z,10.63
2018-04-12T10:20:15.817Z,9.57
2018-04-12T10:22:44.511Z,6.47
2018-04-12T10:25:13.011Z,5.73
2018-04-12T10:27:41.788Z,6.27
2018-04-12T10:30:10.141Z,9.07
2018-04-12T10:32:38.659Z,7.37
2018-04-12T10:35:07.579Z,8.53
2018-04-12T10:37:36.064Z,8.60
2018-04-12T10:40:04.420Z,9.70
2018-04-12T10:42:32.961Z,14.00
2018-04-12T10:45:01.581Z,9.70
2018-04-12T10:47:30.168Z,7.17
2018-04-12T10:49:59.438Z,6.53
2018-04-12T10:52:27.799Z,7.10
2018-04-12T10:54:56.153Z,13.03
2018-04-12T10:57:25.399Z,5.70
2018-04-12T10:59:54.070Z,9.03
2018-04-12T11:02:22.583Z,17.00
2018-04-12T11:04:51.407Z,11.83
2018-04-12T11:07:20.433Z,12.10
2018-04-12T11:09:49.362Z,7.83
2018-04-12T11:12:19.308Z,10.23
2018-04-12T11:14:47.881Z,7.33
2018-04-12T11:17:16.369Z,6.00
2018-04-12T11:19:45.582Z,10.87
2018-04-12T11:22:14.965Z,10.17
2018-04-12T11:24:43.816Z,6.80
2018-04-12T11:27:12.697Z,8.13
2018-04-12T11:29:41.060Z,7.27
2018-04-12T11:32:09.730Z,12.90
2018-04-12T11:34:38.199Z,10.23
2018-04-12T11:37:06.656Z,14.43
2018-04-12T11:39:35.635Z,9.70
2018-04-12T11:42:04.064Z,9.00
2018-04-12T11:44:35.031Z,13.07
2018-04-12T11:47:04.566Z,8.33
2018-04-12T11:49:33.903Z,7.27
2018-04-12T11:52:02.390Z,8.50
2018-04-12T11:54:32.317Z,8.60
2018-04-12T11:57:00.836Z,7.93
2018-04-12T11:59:30.025Z,10.57
2018-04-12T12:01:58.487Z,7.93
2018-04-12T12:04:26.849Z,16.90
2018-04-12T12:06:55.259Z,10.23
2018-04-12T12:09:23.585Z,8.03
2018-04-12T12:11:51.964Z,8.13
2018-04-12T12:14:20.383Z,9.33
2018-04-12T12:16:48.757Z,6.93
2018-04-12T12:19:17.477Z,10.13
2018-04-12T12:21:45.830Z,9.63
2018-04-12T12:24:14.516Z,8.00
2018-04-12T12:26:43.196Z,11.47
2018-04-12T12:29:11.913Z,9.17
2018-04-12T12:31:40.329Z,18.87
2018-04-12T12:34:09.072Z,10.10
2018-04-12T12:36:37.480Z,9.70
2018-04-12T12:39:06.329Z,12.27
2018-04-12T12:41:34.720Z,14.77
2018-04-12T12:44:03.456Z,15.10
2018-04-12T12:46:31.983Z,13.17
2018-04-12T12:49:00.943Z,13.30
2018-04-12T12:51:29.636Z,10.27
2018-04-12T12:53:58.186Z,13.47
2018-04-12T12:56:26.906Z,15.53
2018-04-12T12:58:55.738Z,16.23
2018-04-12T13:01:24.310Z,11.87
2018-04-12T13:03:53.091Z,8.13
2018-04-12T13:06:21.702Z,13.70
2018-04-12T13:08:50.330Z,13.20
2018-04-12T13:11:20.747Z,11.57
2018-04-12T13:13:49.159Z,13.07
2018-04-12T13:16:17.538Z,10.83
2018-04-12T13:18:45.888Z,14.87
2018-04-12T13:21:14.265Z,13.63
2018-04-12T13:23:43.089Z,14.03
2018-04-12T13:26:12.951Z,21.97
2018-04-12T13:28:41.877Z,11.30
2018-04-12T13:31:10.396Z,14.13
2018-04-12T13:33:39.126Z,12.50
2018-04-12T13:36:07.489Z,12.00
2018-04-12T13:38:42.214Z,13.93
2018-04-12T13:41:12.692Z,11.73
2018-04-12T13:43:42.867Z,12.00
2018-04-12T13:46:12.392Z,10.40
2018-04-12T13:48:41.282Z,12.00
2018-04-12T13:51:09.648Z,16.10
2018-04-12T13:53:38.606Z,30.10
2018-04-12T13:56:07.073Z,15.67
2018-04-12T13:58:35.452Z,17.77
2018-04-12T14:01:03.811Z,12.73
2018-04-12T14:03:32.169Z,11.20
2018-04-12T14:06:00.822Z,17.50
2018-04-12T14:08:29.192Z,11.30
2018-04-12T14:10:58.358Z,18.67
2018-04-12T14:13:26.971Z,12.80
2018-04-12T14:15:55.391Z,14.07
2018-04-12T14:18:25.134Z,14.53
2018-04-12T14:20:54.287Z,12.27
2018-04-12T14:23:22.977Z,10.53
2018-04-12T14:25:52.242Z,13.23
2018-04-12T14:28:20.749Z,14.67
2018-04-12T14:30:49.224Z,16.57
2018-04-12T14:33:18.621Z,11.00
2018-04-12T14:35:48.861Z,14.83
2018-04-12T14:38:17.568Z,14.20
2018-04-12T14:40:46.484Z,21.80
2018-04-12T14:43:14.885Z,28.47
2018-04-12T14:45:43.605Z,13.63
2018-04-12T14:48:12.330Z,15.67
2018-04-12T14:50:41.697Z,13.40
2018-04-12T14:53:10.084Z,11.90
2018-04-12T14:55:38.771Z,29.13
2018-04-12T14:58:07.181Z,12.47
2018-04-12T15:00:35.788Z,13.03
2018-04-12T15:03:04.728Z,18.33
2018-04-12T15:05:33.749Z,14.43
2018-04-12T15:08:02.557Z,24.60
2018-04-12T15:10:31.505Z,17.27
2018-04-12T15:13:00.605Z,20.40
2018-04-12T15:15:29.593Z,16.23
2018-04-12T15:17:57.999Z,15.33
2018-04-12T15:20:26.951Z,16.20
2018-04-12T15:22:55.373Z,17.07
2018-04-12T15:25:24.781Z,18.37
2018-04-12T15:27:53.685Z,23.47
2018-04-12T15:30:22.913Z,14.93
2018-04-12T15:32:51.377Z,15.80
2018-04-12T15:35:20.736Z,17.10
2018-04-12T15:37:49.111Z,14.83
2018-04-12T15:40:17.517Z,18.90
2018-04-12T15:42:45.948Z,15.57
2018-04-12T15:45:15.544Z,15.40
2018-04-12T15:47:43.999Z,19.87
2018-04-12T15:50:12.452Z,17.73
2018-04-12T15:52:40.881Z,15.07
2018-04-12T15:55:09.373Z,18.77
2018-04-12T15:57:37.736Z,19.90
2018-04-12T16:00:06.434Z,16.83
2018-04-12T16:02:34.864Z,14.67
2018-04-12T16:05:04.023Z,25.23
2018-04-12T16:07:32.503Z,19.20
2018-04-12T16:10:01.679Z,16.97
2018-04-12T16:12:31.773Z,15.97
2018-04-12T16:15:00.464Z,15.93
2018-04-12T16:17:28.844Z,21.40
2018-04-12T16:19:57.616Z,13.13
2018-04-12T16:22:26.003Z,16.97
2018-04-12T16:24:55.124Z,14.07
2018-04-12T16:27:25.018Z,15.27
2018-04-12T16:29:54.266Z,17.40
2018-04-12T16:32:22.949Z,27.20
2018-04-12T16:34:53.059Z,15.13
2018-04-12T16:37:21.512Z,15.10
2018-04-12T16:39:50.248Z,61.00
2018-04-12T16:42:18.882Z,105.37
2018-04-12T16:44:47.305Z,97.90
2018-04-12T16:47:15.919Z,35.77
2018-04-12T16:49:44.659Z,32.37
2018-04-12T16:52:13.180Z,27.17
2018-04-12T16:54:41.912Z,20.70
2018-04-12T16:57:11.143Z,19.10
2018-04-12T16:59:40.005Z,17.67
2018-04-12T17:02:08.407Z,20.43
2018-04-12T17:04:37.068Z,16.90
2018-04-12T17:07:09.181Z,16.30
2018-04-12T17:09:38.731Z,18.40
2018-04-12T17:12:07.219Z,19.90
2018-04-12T17:14:35.871Z,24.40
2018-04-12T17:17:16.338Z,30.67
2018-04-12T17:19:45.833Z,43.93
2018-04-12T17:22:14.649Z,41.33
2018-04-12T17:24:43.038Z,39.57
2018-04-12T17:27:11.692Z,36.33
2018-04-12T17:29:40.377Z,38.77
2018-04-12T17:32:08.786Z,47.53
2018-04-12T17:34:37.182Z,61.67
2018-04-12T17:37:06.510Z,44.87
2018-04-12T17:39:34.945Z,31.87
2018-04-12T17:42:03.610Z,24.37
2018-04-12T17:44:32.100Z,32.63
2018-04-12T17:47:00.780Z,26.70
2018-04-12T17:49:29.144Z,29.97
2018-04-12T17:51:57.875Z,23.40
2018-04-12T17:54:27.341Z,23.77
2018-04-12T17:56:56.357Z,21.17
2018-04-12T17:59:25.056Z,25.30
2018-04-12T18:01:53.956Z,23.10
2018-04-12T18:04:24.253Z,21.53
2018-04-12T18:06:52.751Z,26.57
2018-04-12T18:09:21.134Z,143.47
2018-04-12T18:11:50.380Z,145.53
2018-04-12T18:14:20.204Z,28.10
2018-04-12T18:16:49.768Z,21.13
2018-04-12T18:19:18.473Z,23.37
2018-04-12T18:21:47.137Z,21.83
2018-04-12T18:24:15.536Z,24.13
2018-04-12T18:26:44.690Z,20.40
2018-04-12T18:29:14.583Z,24.83
2018-04-12T18:31:44.976Z,21.80
2018-04-12T18:34:13.512Z,25.03
2018-04-12T18:36:42.005Z,23.47
2018-04-12T18:39:10.444Z,25.97
2018-04-12T18:41:40.986Z,28.83
2018-04-12T18:44:10.288Z,28.63
2018-04-12T18:46:39.210Z,37.50
2018-04-12T18:49:08.147Z,35.93
2018-04-12T18:51:36.840Z,35.00
2018-04-12T18:54:06.809Z,43.33
2018-04-12T18:56:36.796Z,41.37
2018-04-12T18:59:05.399Z,35.93
2018-04-12T19:01:33.780Z,46.60
2018-04-12T19:04:02.250Z,37.93
2018-04-12T19:06:31.004Z,37.03
2018-04-12T19:08:59.377Z,30.83
2018-04-12T19:11:28.045Z,32.20
2018-04-12T19:13:58.234Z,22.13
2018-04-12T19:16:27.021Z,23.57
2018-04-12T19:18:55.434Z,28.20
2018-04-12T19:21:26.652Z,18.23
2018-04-12T19:23:55.321Z,24.20
2018-04-12T19:26:24.305Z,22.93
2018-04-12T19:28:52.719Z,20.03
2018-04-12T19:31:22.424Z,19.40
2018-04-12T19:33:51.748Z,22.67
2018-04-12T19:36:20.452Z,23.93
2018-04-12T19:38:48.875Z,39.43
2018-04-12T19:41:17.950Z,26.30
2018-04-12T19:43:46.836Z,20.57
2018-04-12T19:48:51.844Z,18.93
2018-04-12T19:51:20.331Z,19.90
2018-04-12T19:53:49.079Z,23.00
2018-04-12T19:56:18.772Z,23.70
2018-04-12T19:58:48.301Z,27.83
2018-04-12T20:01:17.372Z,20.83
2018-04-12T20:03:46.644Z,23.77
2018-04-12T20:06:15.399Z,21.07
2018-04-12T20:08:44.602Z,19.30
2018-04-12T20:11:13.198Z,32.13
2018-04-12T20:13:43.532Z,48.23
2018-04-12T20:16:15.547Z,26.20
2018-04-12T20:18:45.301Z,27.07
2018-04-12T20:21:15.519Z,30.43
2018-04-12T20:23:44.198Z,26.37
2018-04-12T20:26:16.001Z,29.07
2018-04-12T20:28:44.770Z,24.27
2018-04-12T20:31:13.841Z,25.03
2018-04-12T20:33:42.553Z,26.63
2018-04-12T20:36:11.553Z,29.97
2018-04-12T20:38:40.495Z,24.80
2018-04-12T20:41:09.943Z,25.13
2018-04-12T20:43:39.149Z,22.17
2018-04-12T20:46:08.567Z,25.27
2018-04-12T20:48:37.649Z,22.73
2018-04-12T20:51:06.394Z,26.50
2018-04-12T20:53:34.966Z,26.53
2018-04-12T20:56:03.918Z,21.50
2018-04-12T20:58:33.350Z,27.23
2018-04-12T21:01:02.386Z,24.67
2018-04-12T21:03:31.913Z,29.23
2018-04-12T21:06:01.353Z,37.77
2018-04-12T21:08:30.378Z,27.90
2018-04-12T21:10:58.903Z,25.80
2018-04-12T21:13:27.628Z,21.23
2018-04-12T21:15:56.464Z,21.23
2018-04-12T21:18:25.134Z,23.23
2018-04-12T21:20:54.053Z,24.03
2018-04-12T21:23:23.200Z,22.17
2018-04-12T21:25:55.233Z,22.20
2018-04-12T21:28:23.599Z,21.97
2018-04-12T21:30:52.240Z,26.03
2018-04-12T21:33:21.507Z,20.90
2018-04-12T21:35:51.588Z,21.50
2018-04-12T21:38:19.956Z,22.33
2018-04-12T21:40:48.617Z,20.27
2018-04-12T21:43:18.301Z,25.77
2018-04-12T21:45:46.774Z,22.10
2018-04-12T21:48:15.434Z,20.93
2018-04-12T21:50:43.990Z,22.67
2018-04-12T21:53:12.557Z,22.53
2018-04-12T21:55:41.463Z,24.60
2018-04-12T21:58:10.400Z,19.87
2018-04-12T22:08:20.338Z,20.43
2018-04-12T22:13:23.054Z,22.37
2018-04-12T22:15:53.124Z,24.90
2018-04-12T22:20:56.348Z,19.83
2018-04-12T22:23:25.005Z,21.70
2018-04-12T22:25:53.673Z,24.93
2018-04-12T22:28:22.284Z,28.53
2018-04-12T22:30:50.687Z,23.40
2018-04-12T22:33:20.079Z,25.23
2018-04-12T22:35:48.939Z,24.93
2018-04-12T22:38:18.120Z,22.87
2018-04-12T22:40:46.895Z,23.30
2018-04-12T22:43:15.765Z,22.40
2018-04-12T22:45:44.727Z,23.60
2018-04-12T22:48:18.313Z,24.33
2018-04-12T22:50:46.992Z,20.63
2018-04-12T22:53:16.374Z,25.13
2018-04-12T22:55:44.825Z,20.03
2018-04-12T22:58:16.140Z,24.53
2018-04-12T23:00:44.993Z,22.07
2018-04-12T23:03:13.487Z,20.90
2018-04-12T23:05:43.180Z,24.33
2018-04-12T23:08:12.681Z,22.33
2018-04-12T23:10:41.312Z,24.17
2018-04-12T23:13:10.129Z,24.30
2018-04-12T23:15:40.905Z,20.97
2018-04-12T23:18:10.490Z,24.77
2018-04-12T23:20:39.304Z,24.67
2018-04-12T23:25:42.752Z,24.97
2018-04-12T23:28:12.112Z,21.33
2018-04-12T23:30:42.234Z,23.30
2018-04-12T23:35:43.713Z,28.00
2018-04-12T23:38:18.955Z,34.00
2018-04-12T23:40:49.495Z,27.93
2018-04-12T23:43:19.813Z,36.20
2018-04-12T23:45:48.397Z,26.80
2018-04-12T23:48:18.228Z,28.07
2018-04-12T23:50:46.592Z,26.30
2018-04-12T23:53:15.834Z,26.47
2018-04-12T23:55:44.195Z,24.60
2018-04-12T23:58:13.793Z,22.10
